sensor_id;sensor_type;location;lat;lon;timestamp;temperature;humidity
72940;DHT22;61094;51.154;13.570;2023-10-08T00:00:29;18.30;94.90
72940;DHT22;61094;51.154;13.570;2023-10-08T00:05:43;18.30;94.90
72940;DHT22;61094;51.154;13.570;2023-10-08T00:10:46;18.30;94.90
72940;DHT22;61094;51.154;13.570;2023-10-08T00:15:49;18.30;95.30
72940;DHT22;61094;51.154;13.570;2023-10-08T00:20:53;18.20;95.60
72940;DHT22;61094;51.154;13.570;2023-10-08T00:25:59;18.20;96.30
72940;DHT22;61094;51.154;13.570;2023-10-08T00:31:06;18.10;97.50
72940;DHT22;61094;51.154;13.570;2023-10-08T00:36:11;18.00;98.30
72940;DHT22;61094;51.154;13.570;2023-10-08T00:41:19;17.80;99.90
72940;DHT22;61094;51.154;13.570;2023-10-08T00:46:24;17.60;99.90
72940;DHT22;61094;51.154;13.570;2023-10-08T00:51:31;17.50;99.90
72940;DHT22;61094;51.154;13.570;2023-10-08T00:56:41;17.40;99.90
72940;DHT22;61094;51.154;13.570;2023-10-08T01:01:52;17.20;99.90
72940;DHT22;61094;51.154;13.570;2023-10-08T01:07:01;17.10;99.90
72940;DHT22;61094;51.154;13.570;2023-10-08T01:12:12;17.00;99.90
72940;DHT22;61094;51.154;13.570;2023-10-08T01:17:17;16.70;99.90
72940;DHT22;61094;51.154;13.570;2023-10-08T01:22:21;16.50;99.90
72940;DHT22;61094;51.154;13.570;2023-10-08T01:27:23;16.40;99.90
72940;DHT22;61094;51.154;13.570;2023-10-08T01:32:25;16.20;99.90
72940;DHT22;61094;51.154;13.570;2023-10-08T01:37:29;15.80;99.90
72940;DHT22;61094;51.154;13.570;2023-10-08T01:42:34;15.30;99.90
72940;DHT22;61094;51.154;13.570;2023-10-08T01:47:39;14.90;99.90
72940;DHT22;61094;51.154;13.570;2023-10-08T01:52:42;14.50;99.90
72940;DHT22;61094;51.154;13.570;2023-10-08T01:57:48;14.10;99.90
72940;DHT22;61094;51.154;13.570;2023-10-08T02:02:52;13.80;99.90
72940;DHT22;61094;51.154;13.570;2023-10-08T02:07:55;13.60;99.90
72940;DHT22;61094;51.154;13.570;2023-10-08T02:12:59;13.40;99.90
72940;DHT22;61094;51.154;13.570;2023-10-08T02:18:02;13.20;99.90
72940;DHT22;61094;51.154;13.570;2023-10-08T02:23:06;13.10;99.90
72940;DHT22;61094;51.154;13.570;2023-10-08T02:28:08;13.00;99.90
72940;DHT22;61094;51.154;13.570;2023-10-08T02:33:10;13.00;99.90
72940;DHT22;61094;51.154;13.570;2023-10-08T02:38:18;12.90;99.90
72940;DHT22;61094;51.154;13.570;2023-10-08T02:43:21;12.80;99.90
72940;DHT22;61094;51.154;13.570;2023-10-08T02:48:23;12.70;99.90
72940;DHT22;61094;51.154;13.570;2023-10-08T02:53:26;12.60;99.90
72940;DHT22;61094;51.154;13.570;2023-10-08T02:58:30;12.60;99.90
72940;DHT22;61094;51.154;13.570;2023-10-08T03:03:36;12.50;99.90
72940;DHT22;61094;51.154;13.570;2023-10-08T03:08:39;12.40;99.90
72940;DHT22;61094;51.154;13.570;2023-10-08T03:13:44;12.20;99.90
72940;DHT22;61094;51.154;13.570;2023-10-08T03:18:48;12.00;99.90
72940;DHT22;61094;51.154;13.570;2023-10-08T03:23:52;11.80;99.90
72940;DHT22;61094;51.154;13.570;2023-10-08T03:29:00;11.50;99.90
72940;DHT22;61094;51.154;13.570;2023-10-08T03:34:06;11.20;99.90
72940;DHT22;61094;51.154;13.570;2023-10-08T03:39:14;11.00;99.90
72940;DHT22;61094;51.154;13.570;2023-10-08T03:44:19;10.80;99.90
72940;DHT22;61094;51.154;13.570;2023-10-08T03:49:21;10.60;99.90
72940;DHT22;61094;51.154;13.570;2023-10-08T03:54:28;10.60;99.90
72940;DHT22;61094;51.154;13.570;2023-10-08T03:59:34;10.40;99.90
72940;DHT22;61094;51.154;13.570;2023-10-08T04:04:41;10.30;99.90
72940;DHT22;61094;51.154;13.570;2023-10-08T04:09:54;10.30;99.90
72940;DHT22;61094;51.154;13.570;2023-10-08T04:15:18;10.30;99.90
72940;DHT22;61094;51.154;13.570;2023-10-08T04:20:20;10.30;99.90
72940;DHT22;61094;51.154;13.570;2023-10-08T04:25:40;10.30;99.90
72940;DHT22;61094;51.154;13.570;2023-10-08T04:30:43;10.30;99.90
72940;DHT22;61094;51.154;13.570;2023-10-08T04:35:48;10.30;99.90
72940;DHT22;61094;51.154;13.570;2023-10-08T04:40:53;10.30;99.90
72940;DHT22;61094;51.154;13.570;2023-10-08T04:45:54;10.30;99.90
72940;DHT22;61094;51.154;13.570;2023-10-08T04:50:57;10.30;99.90
72940;DHT22;61094;51.154;13.570;2023-10-08T04:56:05;10.30;99.90
72940;DHT22;61094;51.154;13.570;2023-10-08T05:01:14;10.40;99.90
72940;DHT22;61094;51.154;13.570;2023-10-08T05:06:18;10.30;99.90
72940;DHT22;61094;51.154;13.570;2023-10-08T05:11:41;10.20;99.90
72940;DHT22;61094;51.154;13.570;2023-10-08T05:17:08;10.20;99.90
72940;DHT22;61094;51.154;13.570;2023-10-08T05:22:23;10.20;99.90
72940;DHT22;61094;51.154;13.570;2023-10-08T05:27:45;10.20;99.90
72940;DHT22;61094;51.154;13.570;2023-10-08T05:32:59;10.20;99.90
72940;DHT22;61094;51.154;13.570;2023-10-08T05:38:13;10.10;99.90
72940;DHT22;61094;51.154;13.570;2023-10-08T05:43:18;10.20;99.90
72940;DHT22;61094;51.154;13.570;2023-10-08T05:48:44;10.10;99.90
72940;DHT22;61094;51.154;13.570;2023-10-08T05:54:01;10.20;99.90
72940;DHT22;61094;51.154;13.570;2023-10-08T05:59:14;10.20;99.90
72940;DHT22;61094;51.154;13.570;2023-10-08T06:04:18;10.20;99.90
72940;DHT22;61094;51.154;13.570;2023-10-08T06:09:43;10.20;99.90
72940;DHT22;61094;51.154;13.570;2023-10-08T06:15:03;10.20;99.90
72940;DHT22;61094;51.154;13.570;2023-10-08T06:20:12;10.10;99.90
72940;DHT22;61094;51.154;13.570;2023-10-08T06:25:17;10.10;99.90
72940;DHT22;61094;51.154;13.570;2023-10-08T06:30:25;10.10;99.90
72940;DHT22;61094;51.154;13.570;2023-10-08T06:35:29;10.00;99.90
72940;DHT22;61094;51.154;13.570;2023-10-08T06:40:33;10.00;99.90
72940;DHT22;61094;51.154;13.570;2023-10-08T06:45:44;10.00;99.90
72940;DHT22;61094;51.154;13.570;2023-10-08T06:50:48;10.10;99.90
72940;DHT22;61094;51.154;13.570;2023-10-08T06:55:50;10.20;99.90
72940;DHT22;61094;51.154;13.570;2023-10-08T07:00:58;10.20;99.90
72940;DHT22;61094;51.154;13.570;2023-10-08T07:06:05;10.20;99.90
72940;DHT22;61094;51.154;13.570;2023-10-08T07:11:17;10.10;99.90
72940;DHT22;61094;51.154;13.570;2023-10-08T07:16:20;10.00;99.90
72940;DHT22;61094;51.154;13.570;2023-10-08T07:21:22;10.00;99.90
72940;DHT22;61094;51.154;13.570;2023-10-08T07:26:30;10.00;99.90
72940;DHT22;61094;51.154;13.570;2023-10-08T07:31:40;10.00;99.90
72940;DHT22;61094;51.154;13.570;2023-10-08T07:36:44;9.90;99.90
72940;DHT22;61094;51.154;13.570;2023-10-08T07:41:45;9.90;99.90
72940;DHT22;61094;51.154;13.570;2023-10-08T07:46:51;9.90;99.90
72940;DHT22;61094;51.154;13.570;2023-10-08T07:51:56;9.90;99.90
72940;DHT22;61094;51.154;13.570;2023-10-08T07:56:59;10.00;99.90
72940;DHT22;61094;51.154;13.570;2023-10-08T08:02:10;10.00;99.90
72940;DHT22;61094;51.154;13.570;2023-10-08T08:07:12;10.00;99.90
72940;DHT22;61094;51.154;13.570;2023-10-08T08:12:16;10.10;99.90
72940;DHT22;61094;51.154;13.570;2023-10-08T08:17:21;10.10;99.90
72940;DHT22;61094;51.154;13.570;2023-10-08T08:22:23;10.20;99.90
72940;DHT22;61094;51.154;13.570;2023-10-08T08:27:31;10.20;99.90
72940;DHT22;61094;51.154;13.570;2023-10-08T08:32:34;10.20;99.90
72940;DHT22;61094;51.154;13.570;2023-10-08T08:37:38;10.10;99.90
72940;DHT22;61094;51.154;13.570;2023-10-08T08:42:41;10.20;99.90
72940;DHT22;61094;51.154;13.570;2023-10-08T08:47:45;10.20;99.90
72940;DHT22;61094;51.154;13.570;2023-10-08T08:52:47;10.30;99.90
72940;DHT22;61094;51.154;13.570;2023-10-08T08:57:50;10.50;99.90
72940;DHT22;61094;51.154;13.570;2023-10-08T09:02:54;10.60;99.90
72940;DHT22;61094;51.154;13.570;2023-10-08T09:07:58;10.70;99.90
72940;DHT22;61094;51.154;13.570;2023-10-08T09:13:04;10.80;99.90
72940;DHT22;61094;51.154;13.570;2023-10-08T09:18:09;10.80;99.90
72940;DHT22;61094;51.154;13.570;2023-10-08T09:23:12;11.00;99.90
72940;DHT22;61094;51.154;13.570;2023-10-08T09:28:14;11.20;99.90
72940;DHT22;61094;51.154;13.570;2023-10-08T09:33:18;11.40;99.90
72940;DHT22;61094;51.154;13.570;2023-10-08T09:38:20;11.40;99.90
72940;DHT22;61094;51.154;13.570;2023-10-08T09:43:24;11.40;99.90
72940;DHT22;61094;51.154;13.570;2023-10-08T09:48:29;11.30;99.90
72940;DHT22;61094;51.154;13.570;2023-10-08T09:53:41;11.40;99.90
72940;DHT22;61094;51.154;13.570;2023-10-08T09:58:46;11.60;99.90
72940;DHT22;61094;51.154;13.570;2023-10-08T10:03:51;12.30;99.90
72940;DHT22;61094;51.154;13.570;2023-10-08T10:08:55;13.70;99.90
72940;DHT22;61094;51.154;13.570;2023-10-08T10:13:59;15.10;99.90
72940;DHT22;61094;51.154;13.570;2023-10-08T10:19:02;15.20;99.90
72940;DHT22;61094;51.154;13.570;2023-10-08T10:24:22;15.00;99.90
72940;DHT22;61094;51.154;13.570;2023-10-08T10:29:24;15.80;99.90
72940;DHT22;61094;51.154;13.570;2023-10-08T10:34:28;16.10;99.90
72940;DHT22;61094;51.154;13.570;2023-10-08T10:39:31;15.80;99.90
72940;DHT22;61094;51.154;13.570;2023-10-08T10:44:35;16.70;99.90
72940;DHT22;61094;51.154;13.570;2023-10-08T10:49:40;17.10;97.70
72940;DHT22;61094;51.154;13.570;2023-10-08T10:54:52;16.40;99.90
72940;DHT22;61094;51.154;13.570;2023-10-08T11:00:04;15.80;99.90
72940;DHT22;61094;51.154;13.570;2023-10-08T11:05:33;15.10;99.90
72940;DHT22;61094;51.154;13.570;2023-10-08T11:10:38;14.70;99.90
72940;DHT22;61094;51.154;13.570;2023-10-08T11:15:44;14.60;99.90
72940;DHT22;61094;51.154;13.570;2023-10-08T11:20:51;14.70;99.90
72940;DHT22;61094;51.154;13.570;2023-10-08T11:26:02;14.50;99.90
72940;DHT22;61094;51.154;13.570;2023-10-08T11:31:05;14.20;99.90
72940;DHT22;61094;51.154;13.570;2023-10-08T11:36:11;14.00;99.90
72940;DHT22;61094;51.154;13.570;2023-10-08T11:41:19;13.90;99.90
72940;DHT22;61094;51.154;13.570;2023-10-08T11:46:30;14.50;99.90
72940;DHT22;61094;51.154;13.570;2023-10-08T11:51:40;15.40;99.90
72940;DHT22;61094;51.154;13.570;2023-10-08T11:56:41;15.80;99.50
72940;DHT22;61094;51.154;13.570;2023-10-08T12:01:44;16.00;97.70
72940;DHT22;61094;51.154;13.570;2023-10-08T12:06:48;16.60;94.10
72940;DHT22;61094;51.154;13.570;2023-10-08T12:11:52;17.00;84.40
72940;DHT22;61094;51.154;13.570;2023-10-08T12:16:54;17.00;90.70
72940;DHT22;61094;51.154;13.570;2023-10-08T12:21:57;16.80;80.10
72940;DHT22;61094;51.154;13.570;2023-10-08T12:27:03;16.40;87.80
72940;DHT22;61094;51.154;13.570;2023-10-08T12:32:05;16.30;91.50
72940;DHT22;61094;51.154;13.570;2023-10-08T12:37:18;16.20;84.30
72940;DHT22;61094;51.154;13.570;2023-10-08T12:42:20;16.40;84.40
72940;DHT22;61094;51.154;13.570;2023-10-08T12:47:22;17.10;81.40
72940;DHT22;61094;51.154;13.570;2023-10-08T12:52:28;17.70;90.30
72940;DHT22;61094;51.154;13.570;2023-10-08T12:57:30;17.70;62.20
72940;DHT22;61094;51.154;13.570;2023-10-08T13:02:35;17.40;76.90
72940;DHT22;61094;51.154;13.570;2023-10-08T13:07:41;17.10;91.00
72940;DHT22;61094;51.154;13.570;2023-10-08T13:12:45;16.70;85.20
72940;DHT22;61094;51.154;13.570;2023-10-08T13:17:47;16.20;92.60
72940;DHT22;61094;51.154;13.570;2023-10-08T13:22:50;15.90;91.50
72940;DHT22;61094;51.154;13.570;2023-10-08T13:27:51;15.70;91.50
72940;DHT22;61094;51.154;13.570;2023-10-08T13:32:55;15.70;91.30
72940;DHT22;61094;51.154;13.570;2023-10-08T13:37:58;16.10;91.30
72940;DHT22;61094;51.154;13.570;2023-10-08T13:43:06;16.70;84.80
72940;DHT22;61094;51.154;13.570;2023-10-08T13:48:08;17.30;87.60
72940;DHT22;61094;51.154;13.570;2023-10-08T13:53:15;17.30;66.80
72940;DHT22;61094;51.154;13.570;2023-10-08T13:58:17;17.50;77.80
72940;DHT22;61094;51.154;13.570;2023-10-08T14:03:19;17.70;64.00
72940;DHT22;61094;51.154;13.570;2023-10-08T14:08:24;17.50;59.50
72940;DHT22;61094;51.154;13.570;2023-10-08T14:13:29;17.50;89.40
72940;DHT22;61094;51.154;13.570;2023-10-08T14:18:32;17.90;77.30
72940;DHT22;61094;51.154;13.570;2023-10-08T14:23:42;18.10;74.30
72940;DHT22;61094;51.154;13.570;2023-10-08T14:28:44;18.40;60.80
72940;DHT22;61094;51.154;13.570;2023-10-08T14:33:51;18.10;42.20
72940;DHT22;61094;51.154;13.570;2023-10-08T14:39:20;17.40;45.70
72940;DHT22;61094;51.154;13.570;2023-10-08T14:44:45;16.80;62.70
72940;DHT22;61094;51.154;13.570;2023-10-08T14:49:48;16.40;76.50
72940;DHT22;61094;51.154;13.570;2023-10-08T14:54:52;16.20;69.70
72940;DHT22;61094;51.154;13.570;2023-10-08T14:59:54;16.20;78.20
72940;DHT22;61094;51.154;13.570;2023-10-08T15:04:56;16.40;71.50
72940;DHT22;61094;51.154;13.570;2023-10-08T15:10:00;16.50;69.10
72940;DHT22;61094;51.154;13.570;2023-10-08T15:15:02;16.40;69.00
72940;DHT22;61094;51.154;13.570;2023-10-08T15:20:14;15.90;73.10
72940;DHT22;61094;51.154;13.570;2023-10-08T15:25:18;15.60;82.70
72940;DHT22;61094;51.154;13.570;2023-10-08T15:30:20;15.20;87.40
72940;DHT22;61094;51.154;13.570;2023-10-08T15:35:25;14.90;90.80
72940;DHT22;61094;51.154;13.570;2023-10-08T15:40:28;14.70;92.70
72940;DHT22;61094;51.154;13.570;2023-10-08T15:45:31;14.50;93.70
72940;DHT22;61094;51.154;13.570;2023-10-08T15:50:32;14.40;95.40
72940;DHT22;61094;51.154;13.570;2023-10-08T15:55:36;14.30;95.50
72940;DHT22;61094;51.154;13.570;2023-10-08T16:00:38;14.30;96.10
72940;DHT22;61094;51.154;13.570;2023-10-08T16:05:40;14.30;96.20
72940;DHT22;61094;51.154;13.570;2023-10-08T16:10:44;14.10;96.70
72940;DHT22;61094;51.154;13.570;2023-10-08T16:15:45;13.80;98.10
72940;DHT22;61094;51.154;13.570;2023-10-08T16:20:47;13.80;99.90
72940;DHT22;61094;51.154;13.570;2023-10-08T16:25:50;13.80;99.90
72940;DHT22;61094;51.154;13.570;2023-10-08T16:30:54;13.70;99.90
72940;DHT22;61094;51.154;13.570;2023-10-08T16:35:55;13.60;99.90
72940;DHT22;61094;51.154;13.570;2023-10-08T16:41:00;13.50;99.90
72940;DHT22;61094;51.154;13.570;2023-10-08T16:46:02;13.40;99.90
72940;DHT22;61094;51.154;13.570;2023-10-08T16:51:06;13.10;99.90
72940;DHT22;61094;51.154;13.570;2023-10-08T16:56:09;12.90;99.90
72940;DHT22;61094;51.154;13.570;2023-10-08T17:01:11;12.80;99.90
72940;DHT22;61094;51.154;13.570;2023-10-08T17:06:14;12.70;99.90
72940;DHT22;61094;51.154;13.570;2023-10-08T17:11:18;12.70;99.90
72940;DHT22;61094;51.154;13.570;2023-10-08T17:16:21;12.50;99.90
72940;DHT22;61094;51.154;13.570;2023-10-08T17:21:23;12.30;99.90
72940;DHT22;61094;51.154;13.570;2023-10-08T17:26:30;12.20;99.90
72940;DHT22;61094;51.154;13.570;2023-10-08T17:31:32;12.20;99.90
72940;DHT22;61094;51.154;13.570;2023-10-08T17:36:35;12.10;99.90
72940;DHT22;61094;51.154;13.570;2023-10-08T17:41:38;11.90;99.90
72940;DHT22;61094;51.154;13.570;2023-10-08T17:46:40;11.90;99.90
72940;DHT22;61094;51.154;13.570;2023-10-08T17:51:44;11.80;99.90
72940;DHT22;61094;51.154;13.570;2023-10-08T17:56:47;11.80;99.90
72940;DHT22;61094;51.154;13.570;2023-10-08T18:01:49;11.80;99.90
72940;DHT22;61094;51.154;13.570;2023-10-08T18:06:51;11.70;99.90
72940;DHT22;61094;51.154;13.570;2023-10-08T18:11:54;11.80;99.90
72940;DHT22;61094;51.154;13.570;2023-10-08T18:16:57;11.80;99.90
72940;DHT22;61094;51.154;13.570;2023-10-08T18:21:58;11.80;99.90
72940;DHT22;61094;51.154;13.570;2023-10-08T18:27:02;11.70;99.90
72940;DHT22;61094;51.154;13.570;2023-10-08T18:32:04;11.70;99.90
72940;DHT22;61094;51.154;13.570;2023-10-08T18:37:06;11.60;99.90
72940;DHT22;61094;51.154;13.570;2023-10-08T18:42:11;11.60;99.90
72940;DHT22;61094;51.154;13.570;2023-10-08T18:47:13;11.60;99.90
72940;DHT22;61094;51.154;13.570;2023-10-08T18:52:15;11.70;99.90
72940;DHT22;61094;51.154;13.570;2023-10-08T18:57:18;11.70;99.90
72940;DHT22;61094;51.154;13.570;2023-10-08T19:02:20;11.60;99.90
72940;DHT22;61094;51.154;13.570;2023-10-08T19:07:22;11.60;99.90
72940;DHT22;61094;51.154;13.570;2023-10-08T19:12:26;11.60;99.90
72940;DHT22;61094;51.154;13.570;2023-10-08T19:17:29;11.60;99.90
72940;DHT22;61094;51.154;13.570;2023-10-08T19:22:31;11.60;99.90
72940;DHT22;61094;51.154;13.570;2023-10-08T19:27:34;11.50;99.90
72940;DHT22;61094;51.154;13.570;2023-10-08T19:32:36;11.50;99.90
72940;DHT22;61094;51.154;13.570;2023-10-08T19:37:37;11.50;99.90
72940;DHT22;61094;51.154;13.570;2023-10-08T19:42:40;11.50;99.90
72940;DHT22;61094;51.154;13.570;2023-10-08T19:47:43;11.50;99.90
72940;DHT22;61094;51.154;13.570;2023-10-08T19:52:46;11.40;99.90
72940;DHT22;61094;51.154;13.570;2023-10-08T19:57:52;11.30;99.90
72940;DHT22;61094;51.154;13.570;2023-10-08T20:02:54;11.20;99.90
72940;DHT22;61094;51.154;13.570;2023-10-08T20:07:57;11.10;99.90
72940;DHT22;61094;51.154;13.570;2023-10-08T20:13:00;11.10;99.90
72940;DHT22;61094;51.154;13.570;2023-10-08T20:18:03;11.00;99.90
72940;DHT22;61094;51.154;13.570;2023-10-08T20:23:06;11.00;99.90
72940;DHT22;61094;51.154;13.570;2023-10-08T20:28:12;10.90;99.90
72940;DHT22;61094;51.154;13.570;2023-10-08T20:33:16;10.90;99.90
72940;DHT22;61094;51.154;13.570;2023-10-08T20:38:20;10.90;99.90
72940;DHT22;61094;51.154;13.570;2023-10-08T20:43:23;10.90;99.90
72940;DHT22;61094;51.154;13.570;2023-10-08T20:48:26;10.90;99.90
72940;DHT22;61094;51.154;13.570;2023-10-08T20:53:28;10.90;99.90
72940;DHT22;61094;51.154;13.570;2023-10-08T20:58:31;11.00;99.90
72940;DHT22;61094;51.154;13.570;2023-10-08T21:03:33;11.00;99.90
72940;DHT22;61094;51.154;13.570;2023-10-08T21:08:34;11.00;99.90
72940;DHT22;61094;51.154;13.570;2023-10-08T21:13:38;11.00;99.90
72940;DHT22;61094;51.154;13.570;2023-10-08T21:18:39;10.90;99.90
72940;DHT22;61094;51.154;13.570;2023-10-08T21:23:43;10.90;99.90
72940;DHT22;61094;51.154;13.570;2023-10-08T21:28:47;10.90;99.90
72940;DHT22;61094;51.154;13.570;2023-10-08T21:33:49;10.90;99.90
72940;DHT22;61094;51.154;13.570;2023-10-08T21:38:51;10.90;99.90
72940;DHT22;61094;51.154;13.570;2023-10-08T21:43:54;10.80;99.90
72940;DHT22;61094;51.154;13.570;2023-10-08T21:48:55;10.80;99.90
72940;DHT22;61094;51.154;13.570;2023-10-08T21:53:57;10.70;99.90
72940;DHT22;61094;51.154;13.570;2023-10-08T21:59:01;10.80;99.90
72940;DHT22;61094;51.154;13.570;2023-10-08T22:04:04;10.80;99.90
72940;DHT22;61094;51.154;13.570;2023-10-08T22:09:06;10.70;99.90
72940;DHT22;61094;51.154;13.570;2023-10-08T22:14:13;10.80;99.90
72940;DHT22;61094;51.154;13.570;2023-10-08T22:19:19;10.70;99.90
72940;DHT22;61094;51.154;13.570;2023-10-08T22:24:22;10.60;99.90
72940;DHT22;61094;51.154;13.570;2023-10-08T22:29:25;10.50;99.90
72940;DHT22;61094;51.154;13.570;2023-10-08T22:34:28;10.50;99.90
72940;DHT22;61094;51.154;13.570;2023-10-08T22:39:31;10.50;99.90
72940;DHT22;61094;51.154;13.570;2023-10-08T22:44:35;10.50;99.90
72940;DHT22;61094;51.154;13.570;2023-10-08T22:49:37;10.50;99.90
72940;DHT22;61094;51.154;13.570;2023-10-08T22:54:38;10.60;99.90
72940;DHT22;61094;51.154;13.570;2023-10-08T22:59:42;10.60;99.90
72940;DHT22;61094;51.154;13.570;2023-10-08T23:04:43;10.50;99.90
72940;DHT22;61094;51.154;13.570;2023-10-08T23:09:45;10.40;99.90
72940;DHT22;61094;51.154;13.570;2023-10-08T23:14:48;10.50;99.90
72940;DHT22;61094;51.154;13.570;2023-10-08T23:19:54;10.50;99.90
72940;DHT22;61094;51.154;13.570;2023-10-08T23:24:56;10.50;99.90
72940;DHT22;61094;51.154;13.570;2023-10-08T23:30:00;10.50;99.90
72940;DHT22;61094;51.154;13.570;2023-10-08T23:35:02;10.40;99.90
72940;DHT22;61094;51.154;13.570;2023-10-08T23:40:10;10.40;99.90
72940;DHT22;61094;51.154;13.570;2023-10-08T23:45:20;10.40;99.90
72940;DHT22;61094;51.154;13.570;2023-10-08T23:50:27;10.40;99.90
72940;DHT22;61094;51.154;13.570;2023-10-08T23:55:31;10.40;99.90
